Paris-Orly Airport

LFPO · Département de l'Essonne, Région Île-de-France, France

METAR anciennes LFPO · Aéroport de Paris–Orly

Tu vois ci-dessous les METAR des derniers jours. Sélectionne une année pour parcourir les METAR plus anciens, à partir de l'année 2007.

4 mars 2024

Temps Code Temps Temp. Vue Base cloud Vent METAR/SPECI
22:30
V
9 °C 10 km+ - 210° 210° 8 kt METAR LFPO 042130Z 21008KT 180V240 CAVOK 09/01 Q1011 NOSIG
22:00
V
8 °C 10 km+ - 210° 210° 7 kt METAR LFPO 042100Z 21007KT 180V240 CAVOK 08/03 Q1011 NOSIG
21:30
V
8 °C 10 km+ - 190° 190° 4 kt METAR LFPO 042030Z 19004KT CAVOK 08/02 Q1011 NOSIG
20:30
V
8 °C 10 km+ - 160° 160° 4 kt METAR LFPO 041930Z 16004KT CAVOK 08/02 Q1011 NOSIG
20:00
V
8 °C 10 km+ - 170° 170° 3 kt METAR LFPO 041900Z 17003KT CAVOK 08/02 Q1011 NOSIG
19:30
V
8 °C 10 km+ - 170° 170° 3 kt METAR LFPO 041830Z 17003KT CAVOK 08/02 Q1011 NOSIG
19:00
V
9 °C 10 km+ - 150° 150° 4 kt METAR LFPO 041800Z 15004KT CAVOK 09/02 Q1011 NOSIG
18:30
V
9 °C 10 km+ 24.000 ft 150° 150° 5 kt METAR LFPO 041730Z 15005KT 9999 FEW038 BKN240 09/02 Q1011 NOSIG
18:00
V
10 °C 10 km+ 24.000 ft 190° 190° 6 kt METAR LFPO 041700Z 19006KT 150V220 9999 FEW038 BKN240 10/02 Q1011 NOSIG
17:30
V
11 °C 10 km+ - 180° 180° 7 kt METAR LFPO 041630Z 18007KT 9999 FEW039 SCT250 11/02 Q1011 NOSIG
17:00
V
11 °C 10 km+ - 200° 200° 7 kt METAR LFPO 041600Z 20007KT 170V230 9999 FEW040 SCT250 11/02 Q1011 NOSIG
16:30
V
11 °C 10 km+ - 170° 170° 8 kt METAR LFPO 041530Z 17008KT 150V220 9999 FEW040 SCT250 11/01 Q1011 NOSIG
16:00
V
12 °C 10 km+ - 210° 210° 7 kt METAR LFPO 041500Z 21007KT 170V240 9999 FEW039 SCT250 12/02 Q1011 NOSIG
15:30
V
11 °C 10 km+ 24.000 ft 170° 170° 8 kt METAR LFPO 041430Z 17008KT 130V200 9999 FEW039 BKN240 11/01 Q1011 NOSIG
15:00
V
11 °C 10 km+ 24.000 ft 180° 180° 7 kt METAR LFPO 041400Z 18007KT 140V210 9999 FEW039 BKN240 11/02 Q1011 NOSIG
14:30
V
11 °C 10 km+ 26.000 ft 170° 170° 8 kt METAR LFPO 041330Z 17008KT 140V220 9999 FEW039 BKN260 11/01 Q1012 NOSIG
14:00
V
11 °C 10 km+ - 150° 150° 8 kt METAR LFPO 041300Z 15008KT 120V190 9999 FEW036 SCT260 11/02 Q1012 NOSIG
13:30
V
11 °C 10 km+ - 180° 180° 6 kt METAR LFPO 041230Z 18006KT 120V240 9999 FEW033 SCT260 11/02 Q1012 NOSIG
13:00
V
10 °C 10 km+ - 170° 170° 5 kt METAR LFPO 041200Z 17005KT 120V230 9999 FEW031 SCT260 10/02 Q1013 NOSIG
12:30
V
10 °C 10 km+ - 180° 180° 6 kt METAR LFPO 041130Z 18006KT 140V260 9999 FEW030 SCT260 10/02 Q1013 NOSIG
12:00
V
10 °C 10 km+ - 170° 170° 6 kt METAR LFPO 041100Z 17006KT 9999 FEW024 10/03 Q1013 NOSIG
11:30
V
9 °C 10 km+ - 200° 200° 4 kt METAR LFPO 041030Z 20004KT 120V250 9999 FEW020 09/04 Q1013 NOSIG
11:00
V
9 °C 10 km+ - Var Var 2 kt METAR LFPO 041000Z VRB02KT 9999 FEW020 09/04 Q1013 NOSIG
10:30
V
7 °C 10 km+ - Var Var 2 kt METAR LFPO 040930Z VRB02KT CAVOK 07/03 Q1013 NOSIG
10:00
V
6 °C 10 km+ - Var Var 3 kt METAR LFPO 040900Z VRB03KT CAVOK 06/03 Q1013 NOSIG
09:30
V
5 °C 10 km+ - 170° 170° 2 kt METAR LFPO 040830Z 17002KT CAVOK 05/03 Q1013 NOSIG
09:00
V
4 °C 10 km+ - Var Var 2 kt METAR LFPO 040800Z VRB02KT CAVOK 04/02 Q1013 NOSIG
08:30
V
3 °C 10 km+ - Var Var 2 kt METAR LFPO 040730Z VRB02KT CAVOK 03/02 Q1013 NOSIG
08:00
V
1 °C 10 km+ - 180° 180° 3 kt METAR LFPO 040700Z 18003KT CAVOK 01/01 Q1013 NOSIG
07:30
V
1 °C 10 km+ - 220° 220° 3 kt METAR LFPO 040630Z 22003KT 180V240 CAVOK 01/M00 Q1013 NOSIG
07:00
V
1 °C 10 km+ - 230° 230° 3 kt METAR LFPO 040600Z 23003KT CAVOK 01/00 Q1013 NOSIG
06:30
V
1 °C 10 km+ - Var Var 2 kt METAR LFPO 040530Z VRB02KT CAVOK 01/M00 Q1013 NOSIG
06:00
V
2 °C 10 km+ - 260° 260° 5 kt METAR LFPO 040500Z 26005KT CAVOK 02/00 Q1012 NOSIG
05:30
V
2 °C 10 km+ - Var Var 3 kt METAR LFPO 040430Z VRB03KT CAVOK 02/01 Q1012 NOSIG
05:00
V
2 °C 10 km+ - 270° 270° 2 kt METAR LFPO 040400Z AUTO 27002KT CAVOK 02/00 Q1012 TEMPO 4000 BR
04:30
V
2 °C 10 km+ - Var Var 1 kt METAR LFPO 040330Z AUTO VRB01KT CAVOK 02/01 Q1012 TEMPO 4000 BR
04:00
V
2 °C 10 km+ - 250° 250° 5 kt METAR LFPO 040300Z AUTO 25005KT CAVOK 02/01 Q1012 NOSIG
03:30
V
2 °C 10 km+ - 190° 190° 1 kt METAR LFPO 040230Z AUTO 19001KT CAVOK 02/00 Q1011 NOSIG
03:00
V
3 °C 10 km+ - Var Var 1 kt METAR LFPO 040200Z AUTO VRB01KT CAVOK 03/01 Q1012 NOSIG
02:30
V
3 °C 10 km+ - 290° 290° 2 kt METAR LFPO 040130Z AUTO 29002KT CAVOK 03/01 Q1012 NOSIG
02:00
V
3 °C 10 km+ - 360° 360° 0 kt METAR LFPO 040100Z 00000KT CAVOK 03/01 Q1012 NOSIG
01:30
V
4 °C 10 km+ - 100° 100° 1 kt METAR LFPO 040030Z 10001KT CAVOK 04/02 Q1011 NOSIG
01:00
V
4 °C 10 km+ - 270° 270° 4 kt METAR LFPO 040000Z 27004KT CAVOK 04/02 Q1011 NOSIG
00:30
V
3 °C 10 km+ - 260° 260° 4 kt METAR LFPO 032330Z 26004KT CAVOK 03/02 Q1011 NOSIG
00:00
V
3 °C 10 km+ - 270° 270° 6 kt METAR LFPO 032300Z 27006KT CAVOK 03/02 Q1010 NOSIG

3 mars 2024

Temps Code Temps Temp. Vue Base cloud Vent METAR/SPECI
23:30
V
4 °C 10 km+ - 280° 280° 6 kt METAR LFPO 032230Z 28006KT CAVOK 04/02 Q1010 NOSIG
23:00
V
4 °C 10 km+ - 290° 290° 3 kt METAR LFPO 032200Z 29003KT CAVOK 04/02 Q1010 NOSIG
22:30
V
4 °C 10 km+ - 280° 280° 5 kt METAR LFPO 032130Z 28005KT CAVOK 04/02 Q1010 NOSIG
22:00
V
4 °C 10 km+ - 280° 280° 4 kt METAR LFPO 032100Z 28004KT CAVOK 04/02 Q1009 NOSIG
21:30
V
4 °C 10 km+ - 290° 290° 4 kt METAR LFPO 032030Z 29004KT CAVOK 04/02 Q1009 NOSIG
21:00
V
5 °C 10 km+ - Var Var 3 kt METAR LFPO 032000Z VRB03KT CAVOK 05/02 Q1009 NOSIG
20:30
V
5 °C 10 km+ - 310° 310° 4 kt METAR LFPO 031930Z 31004KT CAVOK 05/02 Q1008 NOSIG
20:00
V
6 °C 10 km+ - 290° 290° 4 kt METAR LFPO 031900Z 29004KT 9999 FEW035 SCT200 06/02 Q1008 NOSIG
19:30
V
6 °C 10 km+ 25.000 ft 300° 300° 4 kt METAR LFPO 031830Z 30004KT 9999 FEW035 BKN250 06/02 Q1007 NOSIG
19:00
V
7 °C 10 km+ 25.000 ft 320° 320° 4 kt METAR LFPO 031800Z 32004KT 9999 FEW040 SCT220 BKN250 07/02 Q1007 NOSIG
18:30
V
8 °C 10 km+ 25.000 ft 310° 310° 6 kt METAR LFPO 031730Z 31006KT 290V350 9999 SCT040 SCT060 BKN250 08/02 Q1006 NOSIG
18:00
V
8 °C 10 km+ 25.000 ft 320° 320° 7 kt METAR LFPO 031700Z 32007KT 9999 FEW033 SCT060 BKN250 08/03 Q1006 NOSIG
17:30
V
9 °C 10 km+ 25.000 ft 340° 340° 6 kt METAR LFPO 031630Z 34006KT 310V010 9999 FEW033 BKN250 09/03 Q1005 NOSIG
17:00
V
10 °C 10 km+ 25.000 ft 320° 320° 10 kt METAR LFPO 031600Z 32010KT 9999 SCT033 SCT053 BKN250 10/03 Q1005 NOSIG
16:30
V
9 °C 10 km+ 25.000 ft 320° 320° 9 kt METAR LFPO 031530Z 32009KT 280V340 9999 SCT028 SCT050 BKN250 09/03 Q1005 NOSIG
16:00
V
10 °C 10 km+ 25.000 ft 310° 310° 9 kt METAR LFPO 031500Z 31009KT 270V330 9999 SCT027 SCT043 BKN250 10/03 Q1004 NOSIG
15:30
V
9 °C 10 km+ 5.000 ft 320° 320° 10 kt METAR LFPO 031430Z 32010KT 9999 SCT025 BKN050 BKN250 09/04 Q1004 NOSIG
15:00
M
9 °C 10 km+ 2.500 ft 310° 310° 9 kt METAR LFPO 031400Z 31009KT 9999 BKN025 BKN045 BKN250 09/04 Q1003 NOSIG
14:30
M
9 °C 10 km+ 2.300 ft 310° 310° 8 kt METAR LFPO 031330Z 31008KT 250V360 9999 BKN023 BKN038 BKN250 09/04 Q1003 NOSIG
14:00
M
9 °C 10 km+ 2.100 ft 290° 290° 6 kt METAR LFPO 031300Z 29006KT 9999 BKN021 BKN036 BKN250 09/04 Q1003 NOSIG
13:30
V
8 °C 10 km+ 10.000 ft 300° 300° 7 kt METAR LFPO 031230Z 30007KT 9999 SCT019 BKN100 BKN250 08/04 Q1003 NOSIG
13:00
V
8 °C 10 km+ 10.000 ft 300° 300° 6 kt METAR LFPO 031200Z 30006KT 270V340 9999 SCT019 BKN100 BKN250 08/04 Q1002 NOSIG
12:30
V
8 °C 10 km+ 9.000 ft 310° 310° 7 kt METAR LFPO 031130Z 31007KT 290V350 9999 SCT017 BKN090 BKN210 08/04 Q1002 NOSIG
11:30
V
7 °C 10 km+ 10.000 ft 330° 330° 5 kt METAR LFPO 031030Z 33005KT 9999 SCT013 SCT028 BKN100 07/04 Q1002 NOSIG
11:00
V
7 °C 10 km+ 10.000 ft 290° 290° 4 kt METAR LFPO 031000Z 29004KT 260V320 9999 SCT012 SCT028 BKN100 07/05 Q1002 NOSIG
10:30
V
7 °C 10 km+ 10.000 ft 300° 300° 6 kt METAR LFPO 030930Z 30006KT 9999 FEW010 SCT028 BKN100 07/05 Q1001 NOSIG
10:00
V
6 °C 10 km+ 10.000 ft 300° 300° 4 kt METAR LFPO 030900Z 30004KT 270V340 9999 FEW008 BKN100 BKN230 06/05 Q1001 NOSIG
09:30
M
6 °C 6 km 8.300 ft 310° 310° 4 kt METAR LFPO 030830Z 31004KT 290V350 6000 FEW008 BKN083 06/05 Q1000 NOSIG
09:00
M
6 °C 6 km 8.300 ft 290° 290° 3 kt METAR LFPO 030800Z 29003KT 6000 FEW008 BKN083 06/05 Q1000 NOSIG
08:30
M
5 °C 7 km 9.000 ft 300° 300° 4 kt METAR LFPO 030730Z 30004KT 7000 SCT007 BKN090 05/05 Q1000 TEMPO BKN006
08:00
I
5 °C 7 km 700 ft 280° 280° 3 kt METAR LFPO 030700Z 28003KT 260V320 7000 BKN007 BKN030 BKN056 05/05 Q1000 TEMPO BKN006
07:30
I
5 °C 7 km 700 ft 320° 320° 4 kt METAR LFPO 030630Z 32004KT 7000 BKN007 BKN030 BKN056 05/05 Q0999 TEMPO BKN006
07:00
M
5 °C 7 km 2.500 ft 320° 320° 4 kt METAR LFPO 030600Z 32004KT 7000 -RA SCT006 BKN025 BKN040 05/05 Q0999 TEMPO BKN006
06:30
I
5 °C 4,5 km 2.700 ft 290° 290° 5 kt METAR LFPO 030530Z 29005KT 260V320 4500 -RA FEW011 BKN027 BKN040 05/05 Q0999 NOSIG
06:00
M
5 °C 7 km 4.000 ft 300° 300° 4 kt METAR LFPO 030500Z 30004KT 7000 FEW008 SCT028 BKN040 05/05 Q0998 NOSIG
05:30
M
5 °C 6 km 3.200 ft 300° 300° 2 kt METAR LFPO 030430Z 30002KT 6000 FEW023 BKN032 BKN090 05/04 Q0998 NOSIG
05:00
M
5 °C 6 km 5.000 ft 290° 290° 3 kt METAR LFPO 030400Z 29003KT 6000 -RA FEW020 BKN050 05/04 Q0998 NOSIG
04:30
M
5 °C 6 km 4.000 ft 290° 290° 3 kt METAR LFPO 030330Z 29003KT 6000 -RA FEW006 BKN040 05/05 Q0998 NOSIG
04:00
I
5 °C 4,5 km 4.000 ft 280° 280° 4 kt METAR LFPO 030300Z 28004KT 4500 -RA BR FEW006 BKN040 05/05 Q0998 BECMG 6000 NSW
03:30
I
5 °C 4,5 km 4.000 ft 290° 290° 5 kt METAR LFPO 030230Z 29005KT 4500 -RA BR FEW006 BKN040 05/05 Q0998 TEMPO BKN007 BKN020
03:00
I
5 °C 4 km 2.000 ft 290° 290° 5 kt METAR LFPO 030200Z 29005KT 4000 -RA BR FEW007 BKN020 BKN040 05/05 Q0998 TEMPO BKN007 BKN020
02:30
I
5 °C 4 km 2.000 ft 280° 280° 5 kt METAR LFPO 030130Z 28005KT 4000 -RA BR FEW006 BKN020 BKN028 05/05 Q0998 TEMPO BKN008
02:00
I
6 °C 4 km 2.800 ft 290° 290° 5 kt METAR LFPO 030100Z 29005KT 4000 -RA FEW008 BKN028 06/05 Q0998 NOSIG
01:30
M
6 °C 8 km 2.800 ft 280° 280° 4 kt METAR LFPO 030030Z 28004KT 8000 BKN028 06/05 Q0998 NOSIG
01:00
M
6 °C 6 km 2.800 ft 330° 330° 4 kt METAR LFPO 030000Z 33004KT 6000 FEW007 BKN028 06/05 Q0997 NOSIG
00:30
M
6 °C 6 km 1.700 ft Var Var 2 kt METAR LFPO 022330Z VRB02KT 6000 -RA FEW007 BKN017 06/05 Q0997 TEMPO 4000 -RA SCT006 BKN020
00:00
M
6 °C 6 km 1.400 ft 330° 330° 3 kt METAR LFPO 022300Z 33003KT 300V010 6000 -RA FEW007 BKN014 06/05 Q0997 TEMPO 4000 -RA SCT006 BKN020

2 mars 2024

Temps Code Temps Temp. Vue Base cloud Vent METAR/SPECI
23:30
M
6 °C 6 km 1.300 ft 310° 310° 5 kt METAR LFPO 022230Z 31005KT 6000 -RA FEW007 BKN013 06/05 Q0997 TEMPO 4000 -RA SCT006 BKN020
23:00
I
6 °C 6 km 600 ft 300° 300° 6 kt METAR LFPO 022200Z 30006KT 6000 -RA FEW004 BKN006 06/05 Q0997 TEMPO 4000 -RA SCT006 BKN020
22:30
I
6 °C 4,5 km 600 ft 290° 290° 5 kt METAR LFPO 022130Z 29005KT 4500 -RA BR FEW004 BKN006 06/05 Q0996 TEMPO 6000 FEW006 BKN020
22:00
M
6 °C 6 km 2.700 ft 320° 320° 4 kt METAR LFPO 022100Z 32004KT 6000 -RA SCT006 SCT012 BKN027 06/05 Q0996 TEMPO 4000 -RA BKN008
21:46
M
6 °C 10 km+ 2.700 ft Var Var 3 kt METAR LFPO 022046Z VRB03KT 9999 -RA FEW004 SCT012 BKN027 06/05 Q0996 TEMPO BKN008
21:00
I
6 °C 6 km 800 ft 360° 360° 4 kt METAR LFPO 022000Z 36004KT 340V120 6000 -RA FEW004 BKN008 BKN029 FEW036CB 06/05 Q0996 TEMPO FEW008 BKN020
20:30
M
6 °C 6 km 2.900 ft 020° 020° 4 kt METAR LFPO 021930Z 02004KT 320V080 6000 -RA SCT006 BKN029 FEW036CB 06/05 Q0996 TEMPO 4000 SHRA BKN006 SCT020CB
20:00
M
6 °C 6 km 2.900 ft Var Var 2 kt METAR LFPO 021900Z VRB02KT 6000 -RA SCT006 BKN029 FEW036CB 06/05 Q0996 TEMPO 4000 SHRA BKN006 SCT020CB
19:30
M
6 °C 9 km 2.900 ft 330° 330° 5 kt METAR LFPO 021830Z 33005KT 300V360 9000 -RA FEW007 BKN029 FEW036CB 06/05 Q0995 TEMPO 4000 SHRA BKN012 SCT020CB
19:00
V
6 °C 10 km+ 3.500 ft 330° 330° 5 kt METAR LFPO 021800Z 33005KT 9999 -RA FEW010 BKN035 FEW036CB 06/05 Q0995 TEMPO 4000 SHRA BKN012 SCT020CB
18:30
I
6 °C 4,4 km 1.500 ft 330° 330° 6 kt METAR LFPO 021730Z 33006KT 4400 -RA SCT007 BKN015 BKN026 FEW033CB 06/06 Q0995 TEMPO 2000 SHRA BKN012 SCT020CB
18:00
M
7 °C 7 km 1.300 ft 310° 310° 8 kt METAR LFPO 021700Z 31008KT 7000 -RA SCT007 BKN013 BKN020 07/06 Q0994 TEMPO 2000 SHRA BKN012 SCT020CB
17:30
I
8 °C 4 km 1.600 ft 340° 340° 4 kt METAR LFPO 021630Z 34004KT 310V010 4000 RA SCT008 BKN016 BKN020 FEW023TCU 08/07 Q0994 TEMPO 4000 SHRA BKN012 SCT020CB
17:00
M
8 °C 9 km 1.000 ft 320° 320° 3 kt METAR LFPO 021600Z 32003KT 270V020 9000 -RA SCT006 BKN010 BKN016 FEW020CB 08/07 Q0995 TEMPO 4000 SHRA BKN012 SCT020CB
16:30
I
8 °C 6 km 800 ft 240° 240° 3 kt METAR LFPO 021530Z 24003KT 200V290 6000 RA BKN008 BKN015 08/07 Q0995 TEMPO 4000 SHRA BKN012 SCT020CB
16:00
M
8 °C 8 km 2.100 ft 210° 210° 4 kt METAR LFPO 021500Z 21004KT 8000 -RA SCT008 BKN021 08/07 Q0995 TEMPO 4000 SHRA BKN012 BKN025TCU
15:30
I
8 °C 4 km 700 ft 180° 180° 7 kt METAR LFPO 021430Z 18007KT 4000 -DZ BKN007 BKN013 08/07 Q0995 TEMPO 4000 SHRA BKN012 BKN025TCU
15:00
I
8 °C 8 km 900 ft 180° 180° 6 kt METAR LFPO 021400Z 18006KT 8000 -RA BKN009 BKN013 08/07 Q0995 TEMPO 4000 SHRA BKN012 BKN025TCU
14:30
M
8 °C 9 km 1.500 ft 190° 190° 6 kt METAR LFPO 021330Z 19006KT 150V210 9000 -RA SCT009 BKN015 08/07 Q0996 TEMPO 4000 SHRA BKN012 BKN025TCU
14:00
V
8 °C 10 km+ 3.200 ft 200° 200° 7 kt METAR LFPO 021300Z 20007KT 9999 -RA FEW008 SCT013 OVC032 08/07 Q0996 TEMPO 4000 SHRA BKN012 BKN025TCU
13:30
M
7 °C 10 km+ 2.600 ft 200° 200° 9 kt METAR LFPO 021230Z AUTO 20009KT 9999 R25/1100D -RA FEW009/// SCT019/// BKN026/// //////TCU 07/06 Q0996 TEMPO 17015G25KT 4000 -SHRA BKN012 BKN025TCU
13:00
L
8 °C 1,4 km 800 ft 220° 220° 10 kt METAR LFPO 021200Z AUTO 22010KT 190V250 2900 1400 R02///// R25/1700D R07/1500U R24/P2000 R06/P2000 RA BR BKN008/// BKN015/// OVC022/// //////TCU 08/07 Q0996 TEMPO 4000 -SHRA BKN012 BKN025TCU BECMG 17015G25KT
12:30
I
8 °C 4 km 1.300 ft 200° 200° 11 kt METAR LFPO 021130Z 20011KT 170V230 4000 -RA BKN013 BKN020 08/07 Q0996 TEMPO 4000 SHRA BKN025TCU
12:00
M
8 °C 9 km 1.500 ft 190° 190° 11 kt METAR LFPO 021100Z 19011KT 150V220 9000 -RA SCT009 BKN015 BKN020 08/07 Q0997 TEMPO 4000 SHRA BKN025TCU
11:30
M
8 °C 10 km+ 1.800 ft 180° 180° 10 kt METAR LFPO 021030Z 18010KT 9999 -RADZ SCT013 BKN018 08/07 Q0997 NOSIG
11:00
M
8 °C 10 km+ 1.600 ft 170° 170° 8 kt METAR LFPO 021000Z 17008KT 130V200 9999 SCT011 BKN016 08/07 Q0997 TEMPO BKN008
10:30
M
7 °C 9 km 1.100 ft 200° 200° 6 kt METAR LFPO 020930Z 20006KT 160V240 9000 -RA SCT008 BKN011 07/06 Q0997 TEMPO BKN008
10:00
M
7 °C 8 km 1.300 ft 200° 200° 7 kt METAR LFPO 020900Z 20007KT 160V220 8000 -RA SCT010 BKN013 07/06 Q0997 TEMPO 4000 -SHRA BKN025TCU
09:30
M
7 °C 9 km 2.300 ft 180° 180° 11 kt METAR LFPO 020830Z 18011KT 9000 -RA SCT012 BKN023 07/05 Q0997 TEMPO 4000 -SHRA BKN025TCU
09:00
V
7 °C 10 km+ 6.000 ft 180° 180° 11 kt METAR LFPO 020800Z 18011KT 9999 -RA FEW013 SCT041 BKN060 07/05 Q0997 TEMPO 4000 -SHRA BKN025TCU
08:30
V
6 °C 10 km+ 8.300 ft 170° 170° 10 kt METAR LFPO 020730Z 17010KT 9999 FEW013 BKN083 BKN150 06/05 Q0997 NOSIG
08:00
V
6 °C 10 km+ 15.000 ft 170° 170° 7 kt METAR LFPO 020700Z 17007KT 9999 FEW033 SCT093 BKN150 06/04 Q0998 NOSIG
07:30
V
6 °C 10 km+ 20.000 ft 180° 180° 8 kt METAR LFPO 020630Z 18008KT 9999 FEW036 BKN200 06/04 Q0998 NOSIG
07:00
V
5 °C 10 km+ - 180° 180° 8 kt METAR LFPO 020600Z 18008KT 9999 FEW014 SCT210 05/04 Q0998 NOSIG